sensor_id;sensor_type;location;lat;lon;timestamp;temperature;humidity
19232;DHT22;9750;48.730;10.294;2024-01-30T00:00:34;3.80;99.90
19232;DHT22;9750;48.730;10.294;2024-01-30T00:03:01;3.90;99.90
19232;DHT22;9750;48.730;10.294;2024-01-30T00:08:50;3.90;99.90
19232;DHT22;9750;48.730;10.294;2024-01-30T00:11:19;4.00;99.90
19232;DHT22;9750;48.730;10.294;2024-01-30T00:13:46;4.00;99.90
19232;DHT22;9750;48.730;10.294;2024-01-30T00:16:20;4.00;99.90
19232;DHT22;9750;48.730;10.294;2024-01-30T00:18:49;4.00;99.90
19232;DHT22;9750;48.730;10.294;2024-01-30T00:21:17;3.90;99.90
19232;DHT22;9750;48.730;10.294;2024-01-30T00:23:44;3.80;99.90
19232;DHT22;9750;48.730;10.294;2024-01-30T00:26:13;3.80;99.90
19232;DHT22;9750;48.730;10.294;2024-01-30T00:28:41;3.80;99.90
19232;DHT22;9750;48.730;10.294;2024-01-30T00:31:09;3.70;99.90
19232;DHT22;9750;48.730;10.294;2024-01-30T00:33:38;3.70;99.90
19232;DHT22;9750;48.730;10.294;2024-01-30T00:39:27;3.70;99.90
19232;DHT22;9750;48.730;10.294;2024-01-30T00:41:56;3.60;99.90
19232;DHT22;9750;48.730;10.294;2024-01-30T00:44:23;3.60;99.90
19232;DHT22;9750;48.730;10.294;2024-01-30T00:46:50;3.70;99.90
19232;DHT22;9750;48.730;10.294;2024-01-30T00:49:18;3.70;99.90
19232;DHT22;9750;48.730;10.294;2024-01-30T00:51:45;3.60;99.90
19232;DHT22;9750;48.730;10.294;2024-01-30T00:54:13;3.40;99.90
19232;DHT22;9750;48.730;10.294;2024-01-30T00:56:41;3.30;99.90
19232;DHT22;9750;48.730;10.294;2024-01-30T00:59:10;3.30;99.90
19232;DHT22;9750;48.730;10.294;2024-01-30T01:01:37;3.30;99.90
19232;DHT22;9750;48.730;10.294;2024-01-30T01:04:05;3.30;99.90
19232;DHT22;9750;48.730;10.294;2024-01-30T01:06:31;3.30;99.90
19232;DHT22;9750;48.730;10.294;2024-01-30T01:08:58;3.30;99.90
19232;DHT22;9750;48.730;10.294;2024-01-30T01:11:25;3.30;99.90
19232;DHT22;9750;48.730;10.294;2024-01-30T01:13:53;3.30;99.90
19232;DHT22;9750;48.730;10.294;2024-01-30T01:16:22;3.00;99.90
19232;DHT22;9750;48.730;10.294;2024-01-30T01:18:49;2.90;99.90
19232;DHT22;9750;48.730;10.294;2024-01-30T01:21:17;2.90;99.90
19232;DHT22;9750;48.730;10.294;2024-01-30T01:23:45;2.90;99.90
19232;DHT22;9750;48.730;10.294;2024-01-30T01:26:12;2.90;99.90
19232;DHT22;9750;48.730;10.294;2024-01-30T01:28:41;2.90;99.90
19232;DHT22;9750;48.730;10.294;2024-01-30T01:31:08;2.90;99.90
19232;DHT22;9750;48.730;10.294;2024-01-30T01:33:37;2.90;99.90
19232;DHT22;9750;48.730;10.294;2024-01-30T01:36:05;3.00;99.90
19232;DHT22;9750;48.730;10.294;2024-01-30T01:38:32;2.90;99.90
19232;DHT22;9750;48.730;10.294;2024-01-30T01:40:59;3.00;99.90
19232;DHT22;9750;48.730;10.294;2024-01-30T01:43:27;3.00;99.90
19232;DHT22;9750;48.730;10.294;2024-01-30T01:45:54;3.00;99.90
19232;DHT22;9750;48.730;10.294;2024-01-30T01:48:22;3.00;99.90
19232;DHT22;9750;48.730;10.294;2024-01-30T01:50:52;3.00;99.90
19232;DHT22;9750;48.730;10.294;2024-01-30T01:53:19;3.00;99.90
19232;DHT22;9750;48.730;10.294;2024-01-30T01:55:47;2.90;99.90
19232;DHT22;9750;48.730;10.294;2024-01-30T01:58:15;2.90;99.90
19232;DHT22;9750;48.730;10.294;2024-01-30T02:00:42;2.90;99.90
19232;DHT22;9750;48.730;10.294;2024-01-30T02:03:10;2.90;99.90
19232;DHT22;9750;48.730;10.294;2024-01-30T02:05:39;2.90;99.90
19232;DHT22;9750;48.730;10.294;2024-01-30T02:08:09;2.90;99.90
19232;DHT22;9750;48.730;10.294;2024-01-30T02:10:37;2.90;99.90
19232;DHT22;9750;48.730;10.294;2024-01-30T02:13:04;2.90;99.90
19232;DHT22;9750;48.730;10.294;2024-01-30T02:15:33;2.90;99.90
19232;DHT22;9750;48.730;10.294;2024-01-30T02:18:01;2.90;99.90
19232;DHT22;9750;48.730;10.294;2024-01-30T02:20:30;2.90;99.90
19232;DHT22;9750;48.730;10.294;2024-01-30T02:22:59;2.90;99.90
19232;DHT22;9750;48.730;10.294;2024-01-30T02:25:32;2.90;99.90
19232;DHT22;9750;48.730;10.294;2024-01-30T02:28:00;2.90;99.90
19232;DHT22;9750;48.730;10.294;2024-01-30T02:30:27;2.90;99.90
19232;DHT22;9750;48.730;10.294;2024-01-30T02:32:54;2.90;99.90
19232;DHT22;9750;48.730;10.294;2024-01-30T02:35:21;2.90;99.90
19232;DHT22;9750;48.730;10.294;2024-01-30T02:37:49;2.80;99.90
19232;DHT22;9750;48.730;10.294;2024-01-30T02:40:17;2.90;99.90
19232;DHT22;9750;48.730;10.294;2024-01-30T02:42:45;2.90;99.90
19232;DHT22;9750;48.730;10.294;2024-01-30T02:45:13;2.90;99.90
19232;DHT22;9750;48.730;10.294;2024-01-30T02:47:40;2.90;99.90
19232;DHT22;9750;48.730;10.294;2024-01-30T02:50:08;2.80;99.90
19232;DHT22;9750;48.730;10.294;2024-01-30T02:52:36;2.80;99.90
19232;DHT22;9750;48.730;10.294;2024-01-30T02:55:03;2.80;99.90
19232;DHT22;9750;48.730;10.294;2024-01-30T02:57:32;2.80;99.90
19232;DHT22;9750;48.730;10.294;2024-01-30T03:00:00;2.80;99.90
19232;DHT22;9750;48.730;10.294;2024-01-30T03:02:27;2.80;99.90
19232;DHT22;9750;48.730;10.294;2024-01-30T03:04:54;2.70;99.90
19232;DHT22;9750;48.730;10.294;2024-01-30T03:07:22;2.70;99.90
19232;DHT22;9750;48.730;10.294;2024-01-30T03:09:49;2.70;99.90
19232;DHT22;9750;48.730;10.294;2024-01-30T03:12:17;2.70;99.90
19232;DHT22;9750;48.730;10.294;2024-01-30T03:14:45;2.70;99.90
19232;DHT22;9750;48.730;10.294;2024-01-30T03:17:13;2.70;99.90
19232;DHT22;9750;48.730;10.294;2024-01-30T03:19:40;2.60;99.90
19232;DHT22;9750;48.730;10.294;2024-01-30T03:22:07;2.60;99.90
19232;DHT22;9750;48.730;10.294;2024-01-30T03:24:35;2.60;99.90
19232;DHT22;9750;48.730;10.294;2024-01-30T03:27:03;2.60;99.90
19232;DHT22;9750;48.730;10.294;2024-01-30T03:29:30;2.60;99.90
19232;DHT22;9750;48.730;10.294;2024-01-30T03:31:59;2.60;99.90
19232;DHT22;9750;48.730;10.294;2024-01-30T03:34:26;2.50;99.90
19232;DHT22;9750;48.730;10.294;2024-01-30T03:36:53;2.50;99.90
19232;DHT22;9750;48.730;10.294;2024-01-30T03:39:21;2.60;99.90
19232;DHT22;9750;48.730;10.294;2024-01-30T03:41:48;2.50;99.90
19232;DHT22;9750;48.730;10.294;2024-01-30T03:44:15;2.50;99.90
19232;DHT22;9750;48.730;10.294;2024-01-30T03:46:43;2.50;99.90
19232;DHT22;9750;48.730;10.294;2024-01-30T03:49:12;2.50;99.90
19232;DHT22;9750;48.730;10.294;2024-01-30T03:51:39;2.40;99.90
19232;DHT22;9750;48.730;10.294;2024-01-30T03:54:07;2.40;99.90
19232;DHT22;9750;48.730;10.294;2024-01-30T03:56:36;2.40;99.90
19232;DHT22;9750;48.730;10.294;2024-01-30T03:59:04;2.40;99.90
19232;DHT22;9750;48.730;10.294;2024-01-30T04:01:31;2.40;99.90
19232;DHT22;9750;48.730;10.294;2024-01-30T04:03:59;2.40;99.90
19232;DHT22;9750;48.730;10.294;2024-01-30T04:06:28;2.40;99.90
19232;DHT22;9750;48.730;10.294;2024-01-30T04:08:55;2.40;99.90
19232;DHT22;9750;48.730;10.294;2024-01-30T04:11:22;2.30;99.90
19232;DHT22;9750;48.730;10.294;2024-01-30T04:13:49;2.30;99.90
19232;DHT22;9750;48.730;10.294;2024-01-30T04:16:20;2.30;99.90
19232;DHT22;9750;48.730;10.294;2024-01-30T04:18:48;2.30;99.90
19232;DHT22;9750;48.730;10.294;2024-01-30T04:21:15;2.30;99.90
19232;DHT22;9750;48.730;10.294;2024-01-30T04:23:44;2.30;99.90
19232;DHT22;9750;48.730;10.294;2024-01-30T04:26:34;2.30;99.90
19232;DHT22;9750;48.730;10.294;2024-01-30T04:29:02;2.30;99.90
19232;DHT22;9750;48.730;10.294;2024-01-30T04:31:29;2.30;99.90
19232;DHT22;9750;48.730;10.294;2024-01-30T04:33:57;2.30;99.90
19232;DHT22;9750;48.730;10.294;2024-01-30T04:36:25;2.20;99.90
19232;DHT22;9750;48.730;10.294;2024-01-30T04:38:58;2.20;99.90
19232;DHT22;9750;48.730;10.294;2024-01-30T04:41:31;2.20;99.90
19232;DHT22;9750;48.730;10.294;2024-01-30T04:43:59;2.20;99.90
19232;DHT22;9750;48.730;10.294;2024-01-30T04:46:27;2.20;99.90
19232;DHT22;9750;48.730;10.294;2024-01-30T04:48:54;2.20;99.90
19232;DHT22;9750;48.730;10.294;2024-01-30T04:51:22;2.20;99.90
19232;DHT22;9750;48.730;10.294;2024-01-30T04:53:49;2.10;99.90
19232;DHT22;9750;48.730;10.294;2024-01-30T04:56:22;2.10;99.90
19232;DHT22;9750;48.730;10.294;2024-01-30T04:58:50;2.10;99.90
19232;DHT22;9750;48.730;10.294;2024-01-30T05:01:17;2.10;99.90
19232;DHT22;9750;48.730;10.294;2024-01-30T05:03:45;2.10;99.90
19232;DHT22;9750;48.730;10.294;2024-01-30T05:06:12;2.10;99.90
19232;DHT22;9750;48.730;10.294;2024-01-30T05:08:39;2.10;99.90
19232;DHT22;9750;48.730;10.294;2024-01-30T05:11:07;2.10;99.90
19232;DHT22;9750;48.730;10.294;2024-01-30T05:13:36;2.10;99.90
19232;DHT22;9750;48.730;10.294;2024-01-30T05:16:04;2.00;99.90
19232;DHT22;9750;48.730;10.294;2024-01-30T05:18:34;2.10;99.90
19232;DHT22;9750;48.730;10.294;2024-01-30T05:21:03;2.10;99.90
19232;DHT22;9750;48.730;10.294;2024-01-30T05:23:36;2.10;99.90
19232;DHT22;9750;48.730;10.294;2024-01-30T05:29:35;2.00;99.90
19232;DHT22;9750;48.730;10.294;2024-01-30T05:32:03;2.00;99.90
19232;DHT22;9750;48.730;10.294;2024-01-30T05:34:31;2.10;99.90
19232;DHT22;9750;48.730;10.294;2024-01-30T05:36:58;2.00;99.90
19232;DHT22;9750;48.730;10.294;2024-01-30T05:39:26;2.10;99.90
19232;DHT22;9750;48.730;10.294;2024-01-30T05:41:53;2.00;99.90
19232;DHT22;9750;48.730;10.294;2024-01-30T05:44:20;2.00;99.90
19232;DHT22;9750;48.730;10.294;2024-01-30T05:46:49;2.10;99.90
19232;DHT22;9750;48.730;10.294;2024-01-30T05:49:16;2.10;99.90
19232;DHT22;9750;48.730;10.294;2024-01-30T05:51:44;2.10;99.90
19232;DHT22;9750;48.730;10.294;2024-01-30T05:54:11;2.10;99.90
19232;DHT22;9750;48.730;10.294;2024-01-30T05:56:38;2.00;99.90
19232;DHT22;9750;48.730;10.294;2024-01-30T05:59:05;2.00;99.90
19232;DHT22;9750;48.730;10.294;2024-01-30T06:01:33;2.00;99.90
19232;DHT22;9750;48.730;10.294;2024-01-30T06:04:02;2.00;99.90
19232;DHT22;9750;48.730;10.294;2024-01-30T06:06:29;2.00;99.90
19232;DHT22;9750;48.730;10.294;2024-01-30T06:08:56;2.00;99.90
19232;DHT22;9750;48.730;10.294;2024-01-30T06:11:23;2.00;99.90
19232;DHT22;9750;48.730;10.294;2024-01-30T06:13:51;2.00;99.90
19232;DHT22;9750;48.730;10.294;2024-01-30T06:19:41;2.00;99.90
19232;DHT22;9750;48.730;10.294;2024-01-30T06:22:08;2.00;99.90
19232;DHT22;9750;48.730;10.294;2024-01-30T06:24:36;1.90;99.90
19232;DHT22;9750;48.730;10.294;2024-01-30T06:27:03;1.90;99.90
19232;DHT22;9750;48.730;10.294;2024-01-30T06:29:31;1.90;99.90
19232;DHT22;9750;48.730;10.294;2024-01-30T06:31:58;1.90;99.90
19232;DHT22;9750;48.730;10.294;2024-01-30T06:34:28;2.00;99.90
19232;DHT22;9750;48.730;10.294;2024-01-30T06:40:41;2.00;99.90
19232;DHT22;9750;48.730;10.294;2024-01-30T06:43:17;2.00;99.90
19232;DHT22;9750;48.730;10.294;2024-01-30T06:45:45;2.00;99.90
19232;DHT22;9750;48.730;10.294;2024-01-30T06:48:12;2.00;99.90
19232;DHT22;9750;48.730;10.294;2024-01-30T06:50:39;2.00;99.90
19232;DHT22;9750;48.730;10.294;2024-01-30T06:53:07;2.00;99.90
19232;DHT22;9750;48.730;10.294;2024-01-30T06:55:34;2.10;99.90
19232;DHT22;9750;48.730;10.294;2024-01-30T06:58:03;2.10;99.90
19232;DHT22;9750;48.730;10.294;2024-01-30T07:00:31;2.10;99.90
19232;DHT22;9750;48.730;10.294;2024-01-30T07:02:58;2.10;99.90
19232;DHT22;9750;48.730;10.294;2024-01-30T07:08:49;2.20;99.90
19232;DHT22;9750;48.730;10.294;2024-01-30T07:11:18;2.20;99.90
19232;DHT22;9750;48.730;10.294;2024-01-30T07:13:49;2.20;99.90
19232;DHT22;9750;48.730;10.294;2024-01-30T07:16:17;2.20;99.90
19232;DHT22;9750;48.730;10.294;2024-01-30T07:18:44;2.30;99.90
19232;DHT22;9750;48.730;10.294;2024-01-30T07:21:13;2.30;99.90
19232;DHT22;9750;48.730;10.294;2024-01-30T07:23:40;2.30;99.90
19232;DHT22;9750;48.730;10.294;2024-01-30T07:26:08;2.30;99.90
19232;DHT22;9750;48.730;10.294;2024-01-30T07:28:35;2.40;99.90
19232;DHT22;9750;48.730;10.294;2024-01-30T07:31:04;2.40;99.90
19232;DHT22;9750;48.730;10.294;2024-01-30T07:33:32;2.40;99.90
19232;DHT22;9750;48.730;10.294;2024-01-30T07:35:59;2.40;99.90
19232;DHT22;9750;48.730;10.294;2024-01-30T07:38:26;2.50;99.90
19232;DHT22;9750;48.730;10.294;2024-01-30T07:40:53;2.50;99.90
19232;DHT22;9750;48.730;10.294;2024-01-30T07:43:21;2.60;99.90
19232;DHT22;9750;48.730;10.294;2024-01-30T07:45:48;2.70;99.90
19232;DHT22;9750;48.730;10.294;2024-01-30T07:48:17;2.70;99.90
19232;DHT22;9750;48.730;10.294;2024-01-30T07:50:44;2.70;99.90
19232;DHT22;9750;48.730;10.294;2024-01-30T07:53:11;2.80;99.90
19232;DHT22;9750;48.730;10.294;2024-01-30T07:58:46;2.90;99.90
19232;DHT22;9750;48.730;10.294;2024-01-30T08:01:15;3.00;99.90
19232;DHT22;9750;48.730;10.294;2024-01-30T08:03:43;3.00;99.90
19232;DHT22;9750;48.730;10.294;2024-01-30T08:06:30;3.10;99.90
19232;DHT22;9750;48.730;10.294;2024-01-30T08:08:58;3.20;99.90
19232;DHT22;9750;48.730;10.294;2024-01-30T08:11:25;3.20;99.90
19232;DHT22;9750;48.730;10.294;2024-01-30T08:13:54;3.30;99.90
19232;DHT22;9750;48.730;10.294;2024-01-30T08:16:21;3.40;99.90
19232;DHT22;9750;48.730;10.294;2024-01-30T08:18:50;3.40;99.90
19232;DHT22;9750;48.730;10.294;2024-01-30T08:21:19;3.40;99.90
19232;DHT22;9750;48.730;10.294;2024-01-30T08:23:46;3.40;99.90
19232;DHT22;9750;48.730;10.294;2024-01-30T08:26:13;3.50;99.90
19232;DHT22;9750;48.730;10.294;2024-01-30T08:28:41;3.50;99.90
19232;DHT22;9750;48.730;10.294;2024-01-30T08:31:10;3.60;99.90
19232;DHT22;9750;48.730;10.294;2024-01-30T08:33:38;3.60;99.90
19232;DHT22;9750;48.730;10.294;2024-01-30T08:36:25;3.70;99.90
19232;DHT22;9750;48.730;10.294;2024-01-30T08:38:52;3.70;99.90
19232;DHT22;9750;48.730;10.294;2024-01-30T08:41:19;3.80;99.90
19232;DHT22;9750;48.730;10.294;2024-01-30T08:43:47;3.80;99.90
19232;DHT22;9750;48.730;10.294;2024-01-30T08:46:17;3.80;99.90
19232;DHT22;9750;48.730;10.294;2024-01-30T08:48:45;3.90;99.90
19232;DHT22;9750;48.730;10.294;2024-01-30T08:51:13;3.90;99.90
19232;DHT22;9750;48.730;10.294;2024-01-30T08:53:42;3.90;99.90
19232;DHT22;9750;48.730;10.294;2024-01-30T08:56:17;3.90;99.90
19232;DHT22;9750;48.730;10.294;2024-01-30T08:58:44;3.90;99.90
19232;DHT22;9750;48.730;10.294;2024-01-30T09:01:11;4.00;99.90
19232;DHT22;9750;48.730;10.294;2024-01-30T09:03:38;4.00;99.90
19232;DHT22;9750;48.730;10.294;2024-01-30T09:06:08;4.00;99.90
19232;DHT22;9750;48.730;10.294;2024-01-30T09:08:37;4.00;99.90
19232;DHT22;9750;48.730;10.294;2024-01-30T09:11:10;4.10;99.90
19232;DHT22;9750;48.730;10.294;2024-01-30T09:13:37;4.10;99.90
19232;DHT22;9750;48.730;10.294;2024-01-30T09:16:05;4.20;99.90
19232;DHT22;9750;48.730;10.294;2024-01-30T09:18:33;4.20;99.90
19232;DHT22;9750;48.730;10.294;2024-01-30T09:21:00;4.30;99.90
19232;DHT22;9750;48.730;10.294;2024-01-30T09:23:27;4.30;99.90
19232;DHT22;9750;48.730;10.294;2024-01-30T09:25:55;4.40;99.90
19232;DHT22;9750;48.730;10.294;2024-01-30T09:28:24;4.50;99.90
19232;DHT22;9750;48.730;10.294;2024-01-30T09:30:52;4.50;99.90
19232;DHT22;9750;48.730;10.294;2024-01-30T09:33:19;4.50;99.90
19232;DHT22;9750;48.730;10.294;2024-01-30T09:35:47;4.60;99.90
19232;DHT22;9750;48.730;10.294;2024-01-30T09:38:14;4.60;99.90
19232;DHT22;9750;48.730;10.294;2024-01-30T09:40:41;4.70;99.90
19232;DHT22;9750;48.730;10.294;2024-01-30T09:43:12;4.70;99.90
19232;DHT22;9750;48.730;10.294;2024-01-30T09:45:45;4.80;99.90
19232;DHT22;9750;48.730;10.294;2024-01-30T09:48:13;4.80;99.90
19232;DHT22;9750;48.730;10.294;2024-01-30T09:50:41;4.80;99.90
19232;DHT22;9750;48.730;10.294;2024-01-30T09:53:09;4.80;99.90
19232;DHT22;9750;48.730;10.294;2024-01-30T09:55:36;4.80;99.90
19232;DHT22;9750;48.730;10.294;2024-01-30T09:58:03;4.80;99.90
19232;DHT22;9750;48.730;10.294;2024-01-30T10:00:31;4.80;99.90
19232;DHT22;9750;48.730;10.294;2024-01-30T10:02:59;4.90;99.90
19232;DHT22;9750;48.730;10.294;2024-01-30T10:05:27;4.90;99.90
19232;DHT22;9750;48.730;10.294;2024-01-30T10:07:55;5.00;99.90
19232;DHT22;9750;48.730;10.294;2024-01-30T10:10:24;5.10;99.90
19232;DHT22;9750;48.730;10.294;2024-01-30T10:12:52;5.10;99.90
19232;DHT22;9750;48.730;10.294;2024-01-30T10:15:19;5.20;99.90
19232;DHT22;9750;48.730;10.294;2024-01-30T10:17:47;5.30;99.90
19232;DHT22;9750;48.730;10.294;2024-01-30T10:20:15;5.40;99.90
19232;DHT22;9750;48.730;10.294;2024-01-30T10:22:44;5.40;99.90
19232;DHT22;9750;48.730;10.294;2024-01-30T10:25:11;5.50;99.90
19232;DHT22;9750;48.730;10.294;2024-01-30T10:27:39;5.50;99.90
19232;DHT22;9750;48.730;10.294;2024-01-30T10:30:07;5.60;99.90
19232;DHT22;9750;48.730;10.294;2024-01-30T10:32:35;5.70;99.90
19232;DHT22;9750;48.730;10.294;2024-01-30T10:35:02;5.70;99.90
19232;DHT22;9750;48.730;10.294;2024-01-30T10:37:31;5.70;99.90
19232;DHT22;9750;48.730;10.294;2024-01-30T10:40:02;5.80;99.90
19232;DHT22;9750;48.730;10.294;2024-01-30T10:42:32;5.80;99.90
19232;DHT22;9750;48.730;10.294;2024-01-30T10:45:06;5.80;99.90
19232;DHT22;9750;48.730;10.294;2024-01-30T10:47:35;5.90;99.90
19232;DHT22;9750;48.730;10.294;2024-01-30T10:50:03;6.00;99.90
19232;DHT22;9750;48.730;10.294;2024-01-30T10:52:32;6.00;99.90
19232;DHT22;9750;48.730;10.294;2024-01-30T10:55:00;6.10;99.90
19232;DHT22;9750;48.730;10.294;2024-01-30T10:57:28;6.10;99.90
19232;DHT22;9750;48.730;10.294;2024-01-30T10:59:57;6.20;99.90
19232;DHT22;9750;48.730;10.294;2024-01-30T11:02:25;6.30;99.90
19232;DHT22;9750;48.730;10.294;2024-01-30T11:05:00;6.40;99.90
19232;DHT22;9750;48.730;10.294;2024-01-30T11:07:30;6.50;99.90
19232;DHT22;9750;48.730;10.294;2024-01-30T11:10:01;6.60;99.90
19232;DHT22;9750;48.730;10.294;2024-01-30T11:12:29;6.60;99.90
19232;DHT22;9750;48.730;10.294;2024-01-30T11:15:03;6.70;99.90
19232;DHT22;9750;48.730;10.294;2024-01-30T11:17:41;6.80;99.90
19232;DHT22;9750;48.730;10.294;2024-01-30T11:20:10;6.90;99.90
19232;DHT22;9750;48.730;10.294;2024-01-30T11:22:52;6.90;99.90
19232;DHT22;9750;48.730;10.294;2024-01-30T11:25:31;7.10;99.90
19232;DHT22;9750;48.730;10.294;2024-01-30T11:27:59;7.20;99.90
19232;DHT22;9750;48.730;10.294;2024-01-30T11:30:27;7.20;99.90
19232;DHT22;9750;48.730;10.294;2024-01-30T11:32:59;7.30;99.90
19232;DHT22;9750;48.730;10.294;2024-01-30T11:35:26;7.30;99.90
19232;DHT22;9750;48.730;10.294;2024-01-30T11:37:58;7.40;99.90
19232;DHT22;9750;48.730;10.294;2024-01-30T11:40:27;7.40;99.90
19232;DHT22;9750;48.730;10.294;2024-01-30T11:42:55;7.50;99.90
19232;DHT22;9750;48.730;10.294;2024-01-30T11:45:22;7.60;99.90
19232;DHT22;9750;48.730;10.294;2024-01-30T11:47:49;7.60;99.90
19232;DHT22;9750;48.730;10.294;2024-01-30T11:50:17;7.60;99.90
19232;DHT22;9750;48.730;10.294;2024-01-30T11:52:44;7.70;99.90
19232;DHT22;9750;48.730;10.294;2024-01-30T11:55:14;7.70;99.90
19232;DHT22;9750;48.730;10.294;2024-01-30T11:57:42;7.80;99.90
19232;DHT22;9750;48.730;10.294;2024-01-30T12:00:15;7.80;99.90
19232;DHT22;9750;48.730;10.294;2024-01-30T12:02:42;7.80;99.90
19232;DHT22;9750;48.730;10.294;2024-01-30T12:08:32;7.90;99.90
19232;DHT22;9750;48.730;10.294;2024-01-30T12:11:00;8.00;99.90
19232;DHT22;9750;48.730;10.294;2024-01-30T12:13:31;8.00;99.90
19232;DHT22;9750;48.730;10.294;2024-01-30T12:15:58;8.10;99.90
19232;DHT22;9750;48.730;10.294;2024-01-30T12:18:26;8.10;99.90
19232;DHT22;9750;48.730;10.294;2024-01-30T12:20:57;8.20;99.90
19232;DHT22;9750;48.730;10.294;2024-01-30T12:23:25;8.30;99.90
19232;DHT22;9750;48.730;10.294;2024-01-30T12:25:52;8.40;99.90
19232;DHT22;9750;48.730;10.294;2024-01-30T12:28:21;8.40;99.90
19232;DHT22;9750;48.730;10.294;2024-01-30T12:30:48;8.50;99.90
19232;DHT22;9750;48.730;10.294;2024-01-30T12:33:19;8.50;99.90
19232;DHT22;9750;48.730;10.294;2024-01-30T12:35:46;8.60;99.90
19232;DHT22;9750;48.730;10.294;2024-01-30T12:38:14;8.50;99.90
19232;DHT22;9750;48.730;10.294;2024-01-30T12:40:41;8.60;99.90
19232;DHT22;9750;48.730;10.294;2024-01-30T12:43:08;8.60;99.90
19232;DHT22;9750;48.730;10.294;2024-01-30T12:45:37;8.60;99.90
19232;DHT22;9750;48.730;10.294;2024-01-30T12:48:05;8.60;99.90
19232;DHT22;9750;48.730;10.294;2024-01-30T12:50:33;8.70;99.90
19232;DHT22;9750;48.730;10.294;2024-01-30T12:53:00;8.70;99.90
19232;DHT22;9750;48.730;10.294;2024-01-30T12:55:27;8.70;99.90
19232;DHT22;9750;48.730;10.294;2024-01-30T12:57:56;8.80;99.90
19232;DHT22;9750;48.730;10.294;2024-01-30T13:00:23;8.90;99.90
19232;DHT22;9750;48.730;10.294;2024-01-30T13:02:52;8.90;99.90
19232;DHT22;9750;48.730;10.294;2024-01-30T13:05:19;8.90;99.90
19232;DHT22;9750;48.730;10.294;2024-01-30T13:07:46;8.90;99.90
19232;DHT22;9750;48.730;10.294;2024-01-30T13:10:14;9.00;99.90
19232;DHT22;9750;48.730;10.294;2024-01-30T13:12:41;9.00;99.90
19232;DHT22;9750;48.730;10.294;2024-01-30T13:15:09;9.10;99.90
19232;DHT22;9750;48.730;10.294;2024-01-30T13:17:37;9.10;99.90
19232;DHT22;9750;48.730;10.294;2024-01-30T13:20:07;9.10;99.90
19232;DHT22;9750;48.730;10.294;2024-01-30T13:22:35;9.20;99.90
19232;DHT22;9750;48.730;10.294;2024-01-30T13:25:04;9.20;99.90
19232;DHT22;9750;48.730;10.294;2024-01-30T13:27:32;9.20;99.90
19232;DHT22;9750;48.730;10.294;2024-01-30T13:30:00;9.20;99.90
19232;DHT22;9750;48.730;10.294;2024-01-30T13:32:27;9.20;99.90
19232;DHT22;9750;48.730;10.294;2024-01-30T13:34:54;9.30;99.90
19232;DHT22;9750;48.730;10.294;2024-01-30T13:37:23;9.20;99.90
19232;DHT22;9750;48.730;10.294;2024-01-30T13:39:50;9.20;99.90
19232;DHT22;9750;48.730;10.294;2024-01-30T13:42:18;9.30;99.90
19232;DHT22;9750;48.730;10.294;2024-01-30T13:44:46;9.30;99.90
19232;DHT22;9750;48.730;10.294;2024-01-30T13:47:13;9.30;99.90
19232;DHT22;9750;48.730;10.294;2024-01-30T13:49:41;9.30;99.90
19232;DHT22;9750;48.730;10.294;2024-01-30T13:52:08;9.30;99.90
19232;DHT22;9750;48.730;10.294;2024-01-30T13:54:37;9.30;99.90
19232;DHT22;9750;48.730;10.294;2024-01-30T13:57:05;9.30;99.90
19232;DHT22;9750;48.730;10.294;2024-01-30T13:59:33;9.30;99.90
19232;DHT22;9750;48.730;10.294;2024-01-30T14:02:01;9.30;99.90
19232;DHT22;9750;48.730;10.294;2024-01-30T14:04:28;9.30;99.90
19232;DHT22;9750;48.730;10.294;2024-01-30T14:06:55;9.30;99.90
19232;DHT22;9750;48.730;10.294;2024-01-30T14:09:25;9.30;99.90
19232;DHT22;9750;48.730;10.294;2024-01-30T14:11:54;9.30;99.90
19232;DHT22;9750;48.730;10.294;2024-01-30T14:14:22;9.30;99.90
19232;DHT22;9750;48.730;10.294;2024-01-30T14:16:49;9.30;99.90
19232;DHT22;9750;48.730;10.294;2024-01-30T14:19:16;9.40;99.90
19232;DHT22;9750;48.730;10.294;2024-01-30T14:21:44;9.30;99.90
19232;DHT22;9750;48.730;10.294;2024-01-30T14:24:11;9.30;99.90
19232;DHT22;9750;48.730;10.294;2024-01-30T14:26:39;9.30;99.90
19232;DHT22;9750;48.730;10.294;2024-01-30T14:29:07;9.30;99.90
19232;DHT22;9750;48.730;10.294;2024-01-30T14:31:35;9.30;99.90
19232;DHT22;9750;48.730;10.294;2024-01-30T14:34:02;9.20;99.90
19232;DHT22;9750;48.730;10.294;2024-01-30T14:36:29;9.10;99.90
19232;DHT22;9750;48.730;10.294;2024-01-30T14:38:57;9.10;99.90
19232;DHT22;9750;48.730;10.294;2024-01-30T14:41:24;9.10;99.90
19232;DHT22;9750;48.730;10.294;2024-01-30T14:43:51;9.10;99.90
19232;DHT22;9750;48.730;10.294;2024-01-30T14:46:20;9.10;99.90
19232;DHT22;9750;48.730;10.294;2024-01-30T14:48:48;9.10;99.90
19232;DHT22;9750;48.730;10.294;2024-01-30T14:51:17;9.00;99.90
19232;DHT22;9750;48.730;10.294;2024-01-30T14:53:44;9.00;99.90
19232;DHT22;9750;48.730;10.294;2024-01-30T14:56:11;9.00;99.90
19232;DHT22;9750;48.730;10.294;2024-01-30T14:58:39;9.00;99.90
19232;DHT22;9750;48.730;10.294;2024-01-30T15:01:06;9.00;99.90
19232;DHT22;9750;48.730;10.294;2024-01-30T15:03:35;9.00;99.90
19232;DHT22;9750;48.730;10.294;2024-01-30T15:06:03;9.00;99.90
19232;DHT22;9750;48.730;10.294;2024-01-30T15:08:31;8.90;99.90
19232;DHT22;9750;48.730;10.294;2024-01-30T15:10:59;8.90;99.90
19232;DHT22;9750;48.730;10.294;2024-01-30T15:13:26;8.90;99.90
19232;DHT22;9750;48.730;10.294;2024-01-30T15:15:53;8.90;99.90
19232;DHT22;9750;48.730;10.294;2024-01-30T15:18:21;8.90;99.90
19232;DHT22;9750;48.730;10.294;2024-01-30T15:20:50;8.80;99.90
19232;DHT22;9750;48.730;10.294;2024-01-30T15:23:17;8.80;99.90
19232;DHT22;9750;48.730;10.294;2024-01-30T15:25:44;8.80;99.90
19232;DHT22;9750;48.730;10.294;2024-01-30T15:28:11;8.70;99.90
19232;DHT22;9750;48.730;10.294;2024-01-30T15:30:40;8.70;99.90
19232;DHT22;9750;48.730;10.294;2024-01-30T15:33:09;8.70;99.90
19232;DHT22;9750;48.730;10.294;2024-01-30T15:35:36;8.60;99.90
19232;DHT22;9750;48.730;10.294;2024-01-30T15:38:05;8.60;99.90
19232;DHT22;9750;48.730;10.294;2024-01-30T15:40:34;8.60;99.90
19232;DHT22;9750;48.730;10.294;2024-01-30T15:43:00;8.50;99.90
19232;DHT22;9750;48.730;10.294;2024-01-30T15:45:28;8.50;99.90
19232;DHT22;9750;48.730;10.294;2024-01-30T15:47:55;8.50;99.90
19232;DHT22;9750;48.730;10.294;2024-01-30T15:50:23;8.40;99.90
19232;DHT22;9750;48.730;10.294;2024-01-30T15:52:50;8.40;99.90
19232;DHT22;9750;48.730;10.294;2024-01-30T15:55:19;8.30;99.90
19232;DHT22;9750;48.730;10.294;2024-01-30T15:57:47;8.30;99.90
19232;DHT22;9750;48.730;10.294;2024-01-30T16:00:15;8.30;99.90
19232;DHT22;9750;48.730;10.294;2024-01-30T16:02:42;8.20;99.90
19232;DHT22;9750;48.730;10.294;2024-01-30T16:05:09;8.20;99.90
19232;DHT22;9750;48.730;10.294;2024-01-30T16:07:37;8.10;99.90
19232;DHT22;9750;48.730;10.294;2024-01-30T16:10:05;8.00;99.90
19232;DHT22;9750;48.730;10.294;2024-01-30T16:12:35;8.00;99.90
19232;DHT22;9750;48.730;10.294;2024-01-30T16:15:03;7.90;99.90
19232;DHT22;9750;48.730;10.294;2024-01-30T16:17:30;7.80;99.90